sensor_id;sensor_type;location;lat;lon;timestamp;pressure;altitude;pressure_sealevel;temperature;humidity
44839;BME280;30576;42.098;24.876;2022-08-20T00:00:56;99177.72;;;26.08;50.40
44839;BME280;30576;42.098;24.876;2022-08-20T00:03:28;99198.13;;;26.22;50.49
44839;BME280;30576;42.098;24.876;2022-08-20T00:05:58;99173.72;;;26.03;50.76
44839;BME280;30576;42.098;24.876;2022-08-20T00:08:25;99164.03;;;25.79;51.04
44839;BME280;30576;42.098;24.876;2022-08-20T00:10:52;99204.88;;;26.07;51.25
44839;BME280;30576;42.098;24.876;2022-08-20T00:13:28;99165.75;;;25.59;52.15
44839;BME280;30576;42.098;24.876;2022-08-20T00:15:54;99179.19;;;25.70;52.26
44839;BME280;30576;42.098;24.876;2022-08-20T00:18:21;99215.81;;;25.84;52.53
44839;BME280;30576;42.098;24.876;2022-08-20T00:20:50;99168.03;;;25.64;52.74
44839;BME280;30576;42.098;24.876;2022-08-20T00:23:17;99167.50;;;25.70;52.80
44839;BME280;30576;42.098;24.876;2022-08-20T00:25:44;99200.88;;;26.01;52.71
44839;BME280;30576;42.098;24.876;2022-08-20T00:28:10;99149.56;;;25.90;51.96
44839;BME280;30576;42.098;24.876;2022-08-20T00:30:40;99178.88;;;26.06;51.72
44839;BME280;30576;42.098;24.876;2022-08-20T00:33:09;99164.41;;;25.96;51.92
44839;BME280;30576;42.098;24.876;2022-08-20T00:35:39;99191.63;;;26.04;52.13
44839;BME280;30576;42.098;24.876;2022-08-20T00:38:05;99187.09;;;25.83;52.53
44839;BME280;30576;42.098;24.876;2022-08-20T00:40:41;99153.47;;;25.76;52.36
44839;BME280;30576;42.098;24.876;2022-08-20T00:45:51;99173.59;;;25.83;52.71
44839;BME280;30576;42.098;24.876;2022-08-20T00:48:20;99158.53;;;25.60;53.15
44839;BME280;30576;42.098;24.876;2022-08-20T00:50:46;99153.16;;;25.48;53.60
44839;BME280;30576;42.098;24.876;2022-08-20T00:53:12;99160.41;;;25.48;54.06
44839;BME280;30576;42.098;24.876;2022-08-20T00:55:37;99168.31;;;25.61;53.94
44839;BME280;30576;42.098;24.876;2022-08-20T00:58:06;99153.16;;;25.48;53.91
44839;BME280;30576;42.098;24.876;2022-08-20T01:00:39;99156.47;;;25.52;53.81
44839;BME280;30576;42.098;24.876;2022-08-20T01:03:08;99203.28;;;25.62;54.31
44839;BME280;30576;42.098;24.876;2022-08-20T01:05:39;99198.59;;;25.43;54.66
44839;BME280;30576;42.098;24.876;2022-08-20T01:08:06;99186.69;;;25.46;54.45
44839;BME280;30576;42.098;24.876;2022-08-20T01:10:37;99186.75;;;25.55;54.50
44839;BME280;30576;42.098;24.876;2022-08-20T01:13:08;99175.78;;;25.47;54.42
44839;BME280;30576;42.098;24.876;2022-08-20T01:15:40;99202.81;;;25.57;54.16
44839;BME280;30576;42.098;24.876;2022-08-20T01:18:11;99172.19;;;25.47;53.92
44839;BME280;30576;42.098;24.876;2022-08-20T01:21:00;99184.50;;;25.61;53.20
44839;BME280;30576;42.098;24.876;2022-08-20T01:28:49;99199.00;;;25.38;53.93
44839;BME280;30576;42.098;24.876;2022-08-20T01:31:20;99146.59;;;25.09;53.97
44839;BME280;30576;42.098;24.876;2022-08-20T01:33:46;99157.78;;;25.04;54.58
44839;BME280;30576;42.098;24.876;2022-08-20T01:36:14;99173.50;;;24.88;55.60
44839;BME280;30576;42.098;24.876;2022-08-20T01:38:40;99137.56;;;24.32;56.71
44839;BME280;30576;42.098;24.876;2022-08-20T01:41:21;99182.28;;;24.57;57.35
44839;BME280;30576;42.098;24.876;2022-08-20T01:43:52;99144.75;;;24.54;56.73
44839;BME280;30576;42.098;24.876;2022-08-20T01:46:48;99148.06;;;24.46;57.35
44839;BME280;30576;42.098;24.876;2022-08-20T01:49:39;99128.34;;;24.46;57.33
44839;BME280;30576;42.098;24.876;2022-08-20T01:52:10;99134.25;;;24.62;57.36
44839;BME280;30576;42.098;24.876;2022-08-20T01:54:37;99170.94;;;24.86;57.65
44839;BME280;30576;42.098;24.876;2022-08-20T01:57:07;99155.41;;;24.56;58.23
44839;BME280;30576;42.098;24.876;2022-08-20T01:59:34;99159.09;;;24.66;58.13
44839;BME280;30576;42.098;24.876;2022-08-20T02:01:59;99189.06;;;24.95;57.63
44839;BME280;30576;42.098;24.876;2022-08-20T02:04:26;99155.34;;;24.90;57.40
44839;BME280;30576;42.098;24.876;2022-08-20T02:06:57;99167.34;;;24.97;57.09
44839;BME280;30576;42.098;24.876;2022-08-20T02:09:25;99156.88;;;24.82;57.88
44839;BME280;30576;42.098;24.876;2022-08-20T02:11:51;99157.59;;;24.84;57.60
44839;BME280;30576;42.098;24.876;2022-08-20T02:14:17;99173.00;;;24.94;57.44
44839;BME280;30576;42.098;24.876;2022-08-20T02:16:44;99172.13;;;25.05;57.23
44839;BME280;30576;42.098;24.876;2022-08-20T02:19:25;99167.22;;;24.98;57.08
44839;BME280;30576;42.098;24.876;2022-08-20T02:21:55;99162.00;;;24.86;57.42
44839;BME280;30576;42.098;24.876;2022-08-20T02:24:23;99147.72;;;24.62;57.54
44839;BME280;30576;42.098;24.876;2022-08-20T02:26:49;99165.22;;;24.79;57.27
44839;BME280;30576;42.098;24.876;2022-08-20T02:29:15;99155.00;;;24.83;56.97
44839;BME280;30576;42.098;24.876;2022-08-20T02:31:43;99183.41;;;24.98;56.38
44839;BME280;30576;42.098;24.876;2022-08-20T02:34:10;99155.69;;;24.64;55.61
44839;BME280;30576;42.098;24.876;2022-08-20T02:36:39;99161.09;;;24.64;54.68
44839;BME280;30576;42.098;24.876;2022-08-20T02:39:06;99163.66;;;24.65;53.92
44839;BME280;30576;42.098;24.876;2022-08-20T02:41:33;99163.03;;;24.62;53.77
44839;BME280;30576;42.098;24.876;2022-08-20T02:43:58;99161.69;;;24.67;53.72
44839;BME280;30576;42.098;24.876;2022-08-20T02:46:24;99127.63;;;24.44;53.87
44839;BME280;30576;42.098;24.876;2022-08-20T02:48:53;99192.19;;;24.79;53.77
44839;BME280;30576;42.098;24.876;2022-08-20T02:51:18;99150.28;;;24.64;53.50
44839;BME280;30576;42.098;24.876;2022-08-20T02:53:44;99171.88;;;24.64;53.54
44839;BME280;30576;42.098;24.876;2022-08-20T02:56:10;99174.78;;;24.38;54.08
44839;BME280;30576;42.098;24.876;2022-08-20T02:58:36;99180.06;;;24.40;54.50
44839;BME280;30576;42.098;24.876;2022-08-20T03:01:05;99185.56;;;24.38;55.28
44839;BME280;30576;42.098;24.876;2022-08-20T03:03:31;99143.09;;;24.19;54.90
44839;BME280;30576;42.098;24.876;2022-08-20T03:05:57;99178.72;;;24.45;54.77
44839;BME280;30576;42.098;24.876;2022-08-20T03:08:25;99147.00;;;24.15;54.99
44839;BME280;30576;42.098;24.876;2022-08-20T03:10:51;99170.88;;;24.31;54.14
44839;BME280;30576;42.098;24.876;2022-08-20T03:13:17;99132.94;;;24.11;53.94
44839;BME280;30576;42.098;24.876;2022-08-20T03:15:46;99130.84;;;24.04;53.90
44839;BME280;30576;42.098;24.876;2022-08-20T03:18:13;99152.03;;;24.20;53.68
44839;BME280;30576;42.098;24.876;2022-08-20T03:20:40;99173.34;;;24.23;54.02
44839;BME280;30576;42.098;24.876;2022-08-20T03:23:06;99114.31;;;23.86;54.26
44839;BME280;30576;42.098;24.876;2022-08-20T03:25:32;99189.97;;;24.28;53.99
44839;BME280;30576;42.098;24.876;2022-08-20T03:27:57;99154.34;;;24.02;53.78
44839;BME280;30576;42.098;24.876;2022-08-20T03:30:26;99162.31;;;24.15;53.95
44839;BME280;30576;42.098;24.876;2022-08-20T03:32:53;99168.09;;;24.10;54.07
44839;BME280;30576;42.098;24.876;2022-08-20T03:35:21;99147.72;;;24.17;53.75
44839;BME280;30576;42.098;24.876;2022-08-20T03:37:47;99150.78;;;24.12;53.73
44839;BME280;30576;42.098;24.876;2022-08-20T03:40:16;99140.63;;;24.05;53.63
44839;BME280;30576;42.098;24.876;2022-08-20T03:42:42;99178.72;;;24.23;53.32
44839;BME280;30576;42.098;24.876;2022-08-20T03:45:10;99198.06;;;24.17;53.61
44839;BME280;30576;42.098;24.876;2022-08-20T03:47:37;99186.31;;;23.95;53.77
44839;BME280;30576;42.098;24.876;2022-08-20T03:50:06;99194.25;;;24.08;53.22
44839;BME280;30576;42.098;24.876;2022-08-20T03:52:32;99115.00;;;23.65;53.02
44839;BME280;30576;42.098;24.876;2022-08-20T03:54:57;99159.25;;;23.97;52.63
44839;BME280;30576;42.098;24.876;2022-08-20T03:57:23;99174.78;;;24.16;52.49
44839;BME280;30576;42.098;24.876;2022-08-20T03:59:49;99188.66;;;24.22;52.85
44839;BME280;30576;42.098;24.876;2022-08-20T04:02:16;99163.19;;;24.04;52.31
44839;BME280;30576;42.098;24.876;2022-08-20T04:04:42;99164.50;;;23.98;51.85
44839;BME280;30576;42.098;24.876;2022-08-20T04:07:20;99201.75;;;24.16;52.14
44839;BME280;30576;42.098;24.876;2022-08-20T04:09:55;99169.91;;;23.87;52.42
44839;BME280;30576;42.098;24.876;2022-08-20T04:12:23;99179.69;;;24.22;52.04
44839;BME280;30576;42.098;24.876;2022-08-20T04:14:50;99161.81;;;24.32;51.27
44839;BME280;30576;42.098;24.876;2022-08-20T04:17:16;99180.56;;;24.67;50.49
44839;BME280;30576;42.098;24.876;2022-08-20T04:19:43;99181.03;;;24.73;50.48
44839;BME280;30576;42.098;24.876;2022-08-20T04:22:09;99168.63;;;24.81;50.50
44839;BME280;30576;42.098;24.876;2022-08-20T04:24:39;99164.34;;;24.79;50.73
44839;BME280;30576;42.098;24.876;2022-08-20T04:27:05;99183.03;;;25.03;51.06
44839;BME280;30576;42.098;24.876;2022-08-20T04:29:33;99184.63;;;25.06;51.16
44839;BME280;30576;42.098;24.876;2022-08-20T04:32:00;99181.94;;;24.94;52.60
44839;BME280;30576;42.098;24.876;2022-08-20T04:34:26;99150.59;;;24.93;52.06
44839;BME280;30576;42.098;24.876;2022-08-20T04:36:53;99170.13;;;25.07;52.63
44839;BME280;30576;42.098;24.876;2022-08-20T04:39:19;99176.56;;;25.27;52.65
44839;BME280;30576;42.098;24.876;2022-08-20T04:41:45;99183.13;;;25.45;52.61
44839;BME280;30576;42.098;24.876;2022-08-20T04:44:11;99166.75;;;25.58;52.75
44839;BME280;30576;42.098;24.876;2022-08-20T04:46:37;99190.44;;;25.97;52.46
44839;BME280;30576;42.098;24.876;2022-08-20T04:49:04;99196.69;;;25.97;52.50
44839;BME280;30576;42.098;24.876;2022-08-20T04:51:31;99178.91;;;26.16;50.69
44839;BME280;30576;42.098;24.876;2022-08-20T04:53:57;99178.50;;;26.20;50.37
44839;BME280;30576;42.098;24.876;2022-08-20T04:56:28;99187.66;;;26.39;49.91
44839;BME280;30576;42.098;24.876;2022-08-20T04:58:59;99156.59;;;26.23;50.37
44839;BME280;30576;42.098;24.876;2022-08-20T05:01:26;99202.81;;;26.61;50.86
44839;BME280;30576;42.098;24.876;2022-08-20T05:03:53;99173.50;;;26.56;50.67
44839;BME280;30576;42.098;24.876;2022-08-20T05:06:20;99181.31;;;26.50;50.83
44839;BME280;30576;42.098;24.876;2022-08-20T05:08:47;99184.13;;;26.89;50.33
44839;BME280;30576;42.098;24.876;2022-08-20T05:11:13;99175.44;;;26.95;48.36
44839;BME280;30576;42.098;24.876;2022-08-20T05:13:39;99185.16;;;27.17;47.60
44839;BME280;30576;42.098;24.876;2022-08-20T05:16:06;99158.38;;;27.04;47.97
44839;BME280;30576;42.098;24.876;2022-08-20T05:18:32;99158.06;;;27.17;49.39
44839;BME280;30576;42.098;24.876;2022-08-20T05:20:59;99145.56;;;27.16;50.14
44839;BME280;30576;42.098;24.876;2022-08-20T05:23:34;99144.41;;;26.99;50.08
44839;BME280;30576;42.098;24.876;2022-08-20T05:26:01;99111.78;;;27.10;50.21
44839;BME280;30576;42.098;24.876;2022-08-20T05:28:32;99163.50;;;27.46;49.97
44839;BME280;30576;42.098;24.876;2022-08-20T05:30:59;99154.22;;;27.68;47.50
44839;BME280;30576;42.098;24.876;2022-08-20T05:33:27;99209.47;;;28.05;46.52
44839;BME280;30576;42.098;24.876;2022-08-20T05:35:55;99193.22;;;28.05;45.82
44839;BME280;30576;42.098;24.876;2022-08-20T05:38:26;99152.41;;;28.07;45.48
44839;BME280;30576;42.098;24.876;2022-08-20T05:40:53;99187.97;;;28.41;45.55
44839;BME280;30576;42.098;24.876;2022-08-20T05:43:21;99159.28;;;28.38;44.52
44839;BME280;30576;42.098;24.876;2022-08-20T05:45:48;99168.44;;;28.65;43.44
44839;BME280;30576;42.098;24.876;2022-08-20T05:48:20;99184.16;;;29.07;42.92
44839;BME280;30576;42.098;24.876;2022-08-20T05:50:47;99198.22;;;29.21;41.98
44839;BME280;30576;42.098;24.876;2022-08-20T05:53:19;99178.38;;;29.20;41.65
44839;BME280;30576;42.098;24.876;2022-08-20T05:55:46;99150.31;;;29.56;41.33
44839;BME280;30576;42.098;24.876;2022-08-20T05:58:20;99190.25;;;29.55;42.89
44839;BME280;30576;42.098;24.876;2022-08-20T06:00:47;99169.81;;;29.33;42.94
44839;BME280;30576;42.098;24.876;2022-08-20T06:03:13;99159.56;;;29.63;41.90
44839;BME280;30576;42.098;24.876;2022-08-20T06:05:57;99189.16;;;30.18;39.73
44839;BME280;30576;42.098;24.876;2022-08-20T06:08:22;99181.25;;;30.07;38.74
44839;BME280;30576;42.098;24.876;2022-08-20T06:10:49;99169.28;;;29.92;38.64
44839;BME280;30576;42.098;24.876;2022-08-20T06:13:14;99170.72;;;30.04;38.38
44839;BME280;30576;42.098;24.876;2022-08-20T06:15:40;99154.47;;;30.12;38.42
44839;BME280;30576;42.098;24.876;2022-08-20T06:18:06;99192.81;;;30.62;38.13
44839;BME280;30576;42.098;24.876;2022-08-20T06:20:34;99190.31;;;30.85;37.89
44839;BME280;30576;42.098;24.876;2022-08-20T06:23:00;99168.81;;;30.65;37.69
44839;BME280;30576;42.098;24.876;2022-08-20T06:25:26;99174.84;;;30.94;37.74
44839;BME280;30576;42.098;24.876;2022-08-20T06:27:51;99184.59;;;31.04;38.17
44839;BME280;30576;42.098;24.876;2022-08-20T06:30:16;99167.75;;;31.01;37.47
44839;BME280;30576;42.098;24.876;2022-08-20T06:32:42;99169.13;;;31.21;37.23
44839;BME280;30576;42.098;24.876;2022-08-20T06:35:09;99192.28;;;31.34;36.92
44839;BME280;30576;42.098;24.876;2022-08-20T06:37:37;99197.25;;;31.71;36.96
44839;BME280;30576;42.098;24.876;2022-08-20T06:40:05;99197.56;;;32.01;36.03
44839;BME280;30576;42.098;24.876;2022-08-20T06:42:31;99188.34;;;32.19;36.09
44839;BME280;30576;42.098;24.876;2022-08-20T06:44:57;99172.16;;;32.01;35.75
44839;BME280;30576;42.098;24.876;2022-08-20T06:47:24;99160.97;;;31.71;36.55
44839;BME280;30576;42.098;24.876;2022-08-20T06:49:50;99171.16;;;31.85;36.09
44839;BME280;30576;42.098;24.876;2022-08-20T06:52:16;99150.47;;;32.24;35.59
44839;BME280;30576;42.098;24.876;2022-08-20T06:54:43;99172.66;;;32.60;36.40
44839;BME280;30576;42.098;24.876;2022-08-20T06:57:08;99154.50;;;32.44;35.60
44839;BME280;30576;42.098;24.876;2022-08-20T06:59:34;99164.53;;;32.44;35.75
44839;BME280;30576;42.098;24.876;2022-08-20T07:02:01;99172.22;;;32.88;35.47
44839;BME280;30576;42.098;24.876;2022-08-20T07:04:26;99168.44;;;33.44;34.68
44839;BME280;30576;42.098;24.876;2022-08-20T07:06:53;99187.84;;;33.49;34.55
44839;BME280;30576;42.098;24.876;2022-08-20T07:09:19;99158.34;;;33.44;34.89
44839;BME280;30576;42.098;24.876;2022-08-20T07:11:46;99181.25;;;33.43;34.52
44839;BME280;30576;42.098;24.876;2022-08-20T07:14:13;99183.25;;;33.72;33.91
44839;BME280;30576;42.098;24.876;2022-08-20T07:16:38;99174.81;;;33.97;32.85
44839;BME280;30576;42.098;24.876;2022-08-20T07:19:05;99169.41;;;33.66;33.27
44839;BME280;30576;42.098;24.876;2022-08-20T07:21:30;99148.44;;;33.81;34.00
44839;BME280;30576;42.098;24.876;2022-08-20T07:23:57;99136.50;;;33.59;33.15
44839;BME280;30576;42.098;24.876;2022-08-20T07:26:22;99165.03;;;33.80;32.59
44839;BME280;30576;42.098;24.876;2022-08-20T07:28:48;99147.63;;;34.11;32.52
44839;BME280;30576;42.098;24.876;2022-08-20T07:31:14;99157.34;;;34.43;32.00
44839;BME280;30576;42.098;24.876;2022-08-20T07:33:58;99154.47;;;34.30;32.17
44839;BME280;30576;42.098;24.876;2022-08-20T07:36:23;99145.63;;;34.64;32.52
44839;BME280;30576;42.098;24.876;2022-08-20T07:38:49;99165.81;;;34.78;32.29
44839;BME280;30576;42.098;24.876;2022-08-20T07:41:18;99141.31;;;34.10;33.67
44839;BME280;30576;42.098;24.876;2022-08-20T07:43:44;99149.09;;;34.73;31.98
44839;BME280;30576;42.098;24.876;2022-08-20T07:46:14;99139.72;;;34.46;32.63
44839;BME280;30576;42.098;24.876;2022-08-20T07:48:42;99131.75;;;34.66;32.07
44839;BME280;30576;42.098;24.876;2022-08-20T07:51:12;99132.53;;;34.96;32.15
44839;BME280;30576;42.098;24.876;2022-08-20T07:53:39;99127.97;;;34.67;31.26
44839;BME280;30576;42.098;24.876;2022-08-20T07:56:11;99152.13;;;35.14;30.90
44839;BME280;30576;42.098;24.876;2022-08-20T07:58:40;99120.66;;;34.89;31.19
44839;BME280;30576;42.098;24.876;2022-08-20T08:01:06;99133.72;;;35.08;30.24
44839;BME280;30576;42.098;24.876;2022-08-20T08:03:33;99146.44;;;35.59;31.36
44839;BME280;30576;42.098;24.876;2022-08-20T08:05:59;99132.94;;;35.64;31.70
44839;BME280;30576;42.098;24.876;2022-08-20T08:08:27;99101.31;;;35.19;31.88
44839;BME280;30576;42.098;24.876;2022-08-20T08:10:57;99112.44;;;34.37;34.64
44839;BME280;30576;42.098;24.876;2022-08-20T08:13:23;99096.41;;;34.71;32.80
44839;BME280;30576;42.098;24.876;2022-08-20T08:15:53;99092.44;;;34.73;33.92
44839;BME280;30576;42.098;24.876;2022-08-20T08:18:24;99103.75;;;35.50;32.22
44839;BME280;30576;42.098;24.876;2022-08-20T08:20:52;99090.97;;;35.64;31.56
44839;BME280;30576;42.098;24.876;2022-08-20T08:23:22;99087.91;;;35.45;32.38
44839;BME280;30576;42.098;24.876;2022-08-20T08:25:48;99075.78;;;35.11;32.60
44839;BME280;30576;42.098;24.876;2022-08-20T08:28:17;99097.16;;;34.79;33.82
44839;BME280;30576;42.098;24.876;2022-08-20T08:30:44;99099.34;;;35.56;32.79
44839;BME280;30576;42.098;24.876;2022-08-20T08:33:25;99077.25;;;35.92;32.06
44839;BME280;30576;42.098;24.876;2022-08-20T08:35:56;99066.41;;;35.77;31.73
44839;BME280;30576;42.098;24.876;2022-08-20T08:38:23;99077.81;;;35.53;31.96
44839;BME280;30576;42.098;24.876;2022-08-20T08:40:51;99080.19;;;35.91;31.11
44839;BME280;30576;42.098;24.876;2022-08-20T08:43:20;99077.16;;;36.14;30.09
44839;BME280;30576;42.098;24.876;2022-08-20T08:45:53;99041.53;;;35.50;31.41
44839;BME280;30576;42.098;24.876;2022-08-20T08:48:21;99068.47;;;35.75;31.22
44839;BME280;30576;42.098;24.876;2022-08-20T08:50:53;99043.56;;;35.70;31.02
44839;BME280;30576;42.098;24.876;2022-08-20T08:53:32;99060.25;;;36.10;31.30
44839;BME280;30576;42.098;24.876;2022-08-20T08:55:59;99037.47;;;35.46;31.82
44839;BME280;30576;42.098;24.876;2022-08-20T08:58:25;99041.03;;;35.75;30.64
44839;BME280;30576;42.098;24.876;2022-08-20T09:00:52;99062.28;;;35.66;31.36
44839;BME280;30576;42.098;24.876;2022-08-20T09:03:27;99047.09;;;35.64;31.74
44839;BME280;30576;42.098;24.876;2022-08-20T09:05:57;99028.88;;;35.84;32.27
44839;BME280;30576;42.098;24.876;2022-08-20T09:08:27;99030.09;;;36.24;31.10
44839;BME280;30576;42.098;24.876;2022-08-20T09:11:00;99034.78;;;36.30;30.86
44839;BME280;30576;42.098;24.876;2022-08-20T09:13:26;99015.22;;;36.46;30.19
44839;BME280;30576;42.098;24.876;2022-08-20T09:15:51;99005.25;;;36.38;29.73
44839;BME280;30576;42.098;24.876;2022-08-20T09:18:16;99026.94;;;36.75;29.68
44839;BME280;30576;42.098;24.876;2022-08-20T09:20:42;99016.78;;;36.76;29.83
44839;BME280;30576;42.098;24.876;2022-08-20T09:23:07;99037.06;;;36.19;30.32
44839;BME280;30576;42.098;24.876;2022-08-20T09:25:33;98999.63;;;36.05;31.51
44839;BME280;30576;42.098;24.876;2022-08-20T09:27:58;99015.63;;;36.50;31.25
44839;BME280;30576;42.098;24.876;2022-08-20T09:30:24;98994.81;;;36.20;32.61
44839;BME280;30576;42.098;24.876;2022-08-20T09:32:49;99017.13;;;36.52;31.12
44839;BME280;30576;42.098;24.876;2022-08-20T09:35:16;99000.03;;;36.02;30.94
44839;BME280;30576;42.098;24.876;2022-08-20T09:37:42;98989.84;;;36.37;30.41
44839;BME280;30576;42.098;24.876;2022-08-20T09:40:08;98977.06;;;36.78;29.52
44839;BME280;30576;42.098;24.876;2022-08-20T09:42:35;99010.88;;;36.99;30.17
44839;BME280;30576;42.098;24.876;2022-08-20T09:45:01;98982.50;;;36.71;30.60
44839;BME280;30576;42.098;24.876;2022-08-20T09:47:26;98990.50;;;36.46;29.65
44839;BME280;30576;42.098;24.876;2022-08-20T09:49:52;98971.28;;;36.53;29.34
44839;BME280;30576;42.098;24.876;2022-08-20T09:52:27;98972.56;;;36.57;29.55
44839;BME280;30576;42.098;24.876;2022-08-20T09:54:57;98977.84;;;36.52;29.57
44839;BME280;30576;42.098;24.876;2022-08-20T09:57:24;98960.09;;;36.61;30.24
44839;BME280;30576;42.098;24.876;2022-08-20T09:59:52;98952.41;;;36.23;30.09
44839;BME280;30576;42.098;24.876;2022-08-20T10:02:19;98956.69;;;36.32;30.04
44839;BME280;30576;42.098;24.876;2022-08-20T10:04:44;98965.81;;;36.66;29.63
44839;BME280;30576;42.098;24.876;2022-08-20T10:07:10;98951.53;;;36.09;29.20
44839;BME280;30576;42.098;24.876;2022-08-20T10:09:36;98943.75;;;36.19;29.85
44839;BME280;30576;42.098;24.876;2022-08-20T10:12:03;98945.53;;;35.85;29.55
44839;BME280;30576;42.098;24.876;2022-08-20T10:14:28;98947.75;;;36.17;28.99
44839;BME280;30576;42.098;24.876;2022-08-20T10:16:56;98931.78;;;36.54;27.57
44839;BME280;30576;42.098;24.876;2022-08-20T10:19:22;98944.06;;;36.58;27.99
44839;BME280;30576;42.098;24.876;2022-08-20T10:21:49;98917.19;;;36.47;27.79
44839;BME280;30576;42.098;24.876;2022-08-20T10:24:16;98933.41;;;36.21;28.54
44839;BME280;30576;42.098;24.876;2022-08-20T10:26:42;98920.38;;;36.50;28.98
44839;BME280;30576;42.098;24.876;2022-08-20T10:29:08;98897.13;;;36.66;27.88
44839;BME280;30576;42.098;24.876;2022-08-20T10:31:33;98925.88;;;36.57;27.86
44839;BME280;30576;42.098;24.876;2022-08-20T10:33:59;98927.44;;;36.11;27.62
44839;BME280;30576;42.098;24.876;2022-08-20T10:36:24;98915.03;;;36.22;27.93
44839;BME280;30576;42.098;24.876;2022-08-20T10:38:50;98897.06;;;36.06;27.64
44839;BME280;30576;42.098;24.876;2022-08-20T10:41:15;98922.00;;;36.25;27.71
44839;BME280;30576;42.098;24.876;2022-08-20T10:43:42;98925.78;;;36.17;27.85
44839;BME280;30576;42.098;24.876;2022-08-20T10:46:08;98887.56;;;36.15;27.78
44839;BME280;30576;42.098;24.876;2022-08-20T10:48:34;98870.06;;;36.23;27.55
44839;BME280;30576;42.098;24.876;2022-08-20T10:50:59;98891.22;;;36.43;27.71
44839;BME280;30576;42.098;24.876;2022-08-20T10:53:25;98872.84;;;36.43;27.55
44839;BME280;30576;42.098;24.876;2022-08-20T10:55:52;98893.56;;;36.66;27.22
44839;BME280;30576;42.098;24.876;2022-08-20T10:58:18;98880.66;;;36.46;27.02
44839;BME280;30576;42.098;24.876;2022-08-20T11:00:44;98885.94;;;36.28;26.85
44839;BME280;30576;42.098;24.876;2022-08-20T11:03:10;98892.06;;;36.36;27.32
44839;BME280;30576;42.098;24.876;2022-08-20T11:05:36;98859.31;;;36.62;27.47
44839;BME280;30576;42.098;24.876;2022-08-20T11:08:02;98882.75;;;37.11;27.24
44839;BME280;30576;42.098;24.876;2022-08-20T11:10:30;98866.53;;;36.83;26.69
44839;BME280;30576;42.098;24.876;2022-08-20T11:12:58;98873.25;;;36.67;26.74
44839;BME280;30576;42.098;24.876;2022-08-20T11:15:24;98867.97;;;36.99;26.43
44839;BME280;30576;42.098;24.876;2022-08-20T11:17:50;98851.91;;;36.96;26.43
44839;BME280;30576;42.098;24.876;2022-08-20T11:20:18;98871.09;;;37.09;26.49
44839;BME280;30576;42.098;24.876;2022-08-20T11:22:44;98842.44;;;36.78;26.13
44839;BME280;30576;42.098;24.876;2022-08-20T11:25:09;98863.97;;;36.61;26.42
44839;BME280;30576;42.098;24.876;2022-08-20T11:27:42;98848.16;;;36.56;26.56
44839;BME280;30576;42.098;24.876;2022-08-20T11:30:12;98820.03;;;36.48;27.06
44839;BME280;30576;42.098;24.876;2022-08-20T11:32:38;98852.16;;;36.74;26.01
44839;BME280;30576;42.098;24.876;2022-08-20T11:35:05;98825.94;;;36.85;26.43
44839;BME280;30576;42.098;24.876;2022-08-20T11:37:31;98795.53;;;36.80;25.46
44839;BME280;30576;42.098;24.876;2022-08-20T11:39:57;98816.75;;;37.18;25.33
44839;BME280;30576;42.098;24.876;2022-08-20T11:42:22;98814.97;;;36.78;25.63
44839;BME280;30576;42.098;24.876;2022-08-20T11:44:48;98821.06;;;36.73;25.58
44839;BME280;30576;42.098;24.876;2022-08-20T11:47:22;98835.38;;;37.22;24.64
44839;BME280;30576;42.098;24.876;2022-08-20T11:49:56;98844.47;;;37.09;25.60
44839;BME280;30576;42.098;24.876;2022-08-20T11:52:22;98811.38;;;36.84;25.12
44839;BME280;30576;42.098;24.876;2022-08-20T11:54:47;98799.31;;;36.79;25.13
44839;BME280;30576;42.098;24.876;2022-08-20T11:57:19;98797.41;;;36.59;25.70
44839;BME280;30576;42.098;24.876;2022-08-20T11:59:50;98800.50;;;37.09;25.36
44839;BME280;30576;42.098;24.876;2022-08-20T12:02:16;98804.22;;;37.35;25.29
44839;BME280;30576;42.098;24.876;2022-08-20T12:04:42;98798.44;;;37.50;24.80
44839;BME280;30576;42.098;24.876;2022-08-20T12:07:13;98795.88;;;37.55;24.04
44839;BME280;30576;42.098;24.876;2022-08-20T12:09:40;98810.31;;;37.44;24.30
44839;BME280;30576;42.098;24.876;2022-08-20T12:12:06;98789.41;;;37.36;24.70
44839;BME280;30576;42.098;24.876;2022-08-20T12:14:32;98805.28;;;37.34;24.57
44839;BME280;30576;42.098;24.876;2022-08-20T12:17:07;98812.19;;;37.89;23.86
44839;BME280;30576;42.098;24.876;2022-08-20T12:19:36;98786.91;;;37.73;24.71
44839;BME280;30576;42.098;24.876;2022-08-20T12:22:01;98790.03;;;37.38;24.04
44839;BME280;30576;42.098;24.876;2022-08-20T12:24:27;98791.56;;;37.27;24.50
44839;BME280;30576;42.098;24.876;2022-08-20T12:26:53;98798.38;;;37.63;24.16
44839;BME280;30576;42.098;24.876;2022-08-20T12:29:18;98785.72;;;37.56;23.46
44839;BME280;30576;42.098;24.876;2022-08-20T12:31:43;98803.44;;;37.15;24.50
44839;BME280;30576;42.098;24.876;2022-08-20T12:34:09;98765.50;;;36.85;24.34
44839;BME280;30576;42.098;24.876;2022-08-20T12:36:34;98761.75;;;37.18;24.46
44839;BME280;30576;42.098;24.876;2022-08-20T12:39:00;98778.47;;;37.61;24.36
44839;BME280;30576;42.098;24.876;2022-08-20T12:41:25;98787.28;;;37.84;24.02
44839;BME280;30576;42.098;24.876;2022-08-20T12:43:51;98792.81;;;38.34;23.39
44839;BME280;30576;42.098;24.876;2022-08-20T12:46:16;98768.78;;;37.59;23.44
44839;BME280;30576;42.098;24.876;2022-08-20T12:48:43;98772.88;;;37.43;23.56
44839;BME280;30576;42.098;24.876;2022-08-20T12:51:08;98758.81;;;37.19;23.67
44839;BME280;30576;42.098;24.876;2022-08-20T12:53:34;98737.69;;;37.13;24.58
44839;BME280;30576;42.098;24.876;2022-08-20T12:55:59;98769.84;;;37.06;23.93
44839;BME280;30576;42.098;24.876;2022-08-20T12:58:26;98752.81;;;36.84;23.80
44839;BME280;30576;42.098;24.876;2022-08-20T13:00:52;98768.75;;;37.14;23.99